createdAt,value
2023-03-29T00:02:11.476Z,7.10
2023-03-29T00:04:44.413Z,8.70
2023-03-29T00:07:17.133Z,8.00
2023-03-29T00:09:50.377Z,5.50
2023-03-29T00:12:22.901Z,7.50
2023-03-29T00:14:56.421Z,6.70
2023-03-29T00:17:29.343Z,10.60
2023-03-29T00:20:02.317Z,8.30
2023-03-29T00:22:38.160Z,10.00
2023-03-29T00:25:13.120Z,10.00
2023-03-29T00:28:04.461Z,8.00
2023-03-29T00:30:40.967Z,7.90
2023-03-29T00:33:14.053Z,7.90
2023-03-29T00:35:54.929Z,11.30
2023-03-29T00:38:29.143Z,10.00
2023-03-29T00:41:02.570Z,10.30
2023-03-29T00:43:49.001Z,8.50
2023-03-29T00:46:21.923Z,9.10
2023-03-29T00:48:58.205Z,7.20
2023-03-29T00:51:35.092Z,9.30
2023-03-29T00:54:15.180Z,7.70
2023-03-29T00:56:53.013Z,7.30
2023-03-29T00:59:30.232Z,10.90
2023-03-29T01:02:05.851Z,8.50
2023-03-29T01:04:43.098Z,10.30
2023-03-29T01:07:22.460Z,10.00
2023-03-29T01:10:01.807Z,9.20
2023-03-29T01:12:44.114Z,8.90
2023-03-29T01:15:21.598Z,10.50
2023-03-29T01:18:02.312Z,13.40
2023-03-29T01:20:49.487Z,9.80
2023-03-29T01:23:34.703Z,11.80
2023-03-29T01:26:16.799Z,11.20
2023-03-29T01:28:54.992Z,12.00
2023-03-29T01:31:31.476Z,12.00
2023-03-29T01:34:07.783Z,12.50
2023-03-29T01:36:46.957Z,10.30
2023-03-29T01:39:20.992Z,10.30
2023-03-29T01:42:05.067Z,12.20
2023-03-29T01:44:45.255Z,11.60
2023-03-29T01:47:28.289Z,13.90
2023-03-29T01:50:09.044Z,9.90
2023-03-29T01:52:47.397Z,14.40
2023-03-29T01:55:24.392Z,16.50
2023-03-29T01:58:00.160Z,14.20
2023-03-29T02:00:35.276Z,16.20
2023-03-29T02:03:11.992Z,18.70
2023-03-29T02:05:45.984Z,16.50
2023-03-29T02:08:20.441Z,16.10
2023-03-29T02:10:54.277Z,15.20
2023-03-29T02:16:03.491Z,14.70
2023-03-29T02:18:40.614Z,17.70
2023-03-29T02:21:23.094Z,17.60
2023-03-29T02:24:01.238Z,13.70
2023-03-29T02:26:34.743Z,19.80
2023-03-29T02:29:07.760Z,19.70
2023-03-29T02:31:46.274Z,21.00
2023-03-29T02:34:27.703Z,18.90
2023-03-29T02:37:04.192Z,15.80
2023-03-29T02:39:38.878Z,14.80
2023-03-29T02:42:15.094Z,14.10
2023-03-29T02:44:51.753Z,12.60
2023-03-29T02:47:28.629Z,13.60
2023-03-29T02:50:01.844Z,15.10
2023-03-29T02:52:39.667Z,14.50
2023-03-29T02:55:18.706Z,14.40
2023-03-29T02:57:51.392Z,15.20
2023-03-29T03:00:24.718Z,15.60
2023-03-29T03:03:01.995Z,15.20
2023-03-29T03:05:35.154Z,16.20
2023-03-29T03:08:08.940Z,12.20
2023-03-29T03:13:12.957Z,13.50
2023-03-29T03:18:23.766Z,12.40
2023-03-29T03:21:03.444Z,13.30
2023-03-29T03:23:36.106Z,14.00
2023-03-29T03:26:09.457Z,15.20
2023-03-29T03:28:42.507Z,15.70
2023-03-29T03:31:21.985Z,13.80
2023-03-29T03:34:19.851Z,15.70
2023-03-29T03:37:02.194Z,15.50
2023-03-29T03:39:37.096Z,15.10
2023-03-29T03:42:10.993Z,11.30
2023-03-29T03:44:48.212Z,12.40
2023-03-29T03:47:41.792Z,14.70
2023-03-29T03:50:36.475Z,13.90
2023-03-29T03:53:09.709Z,14.00
2023-03-29T03:56:09.257Z,12.10
2023-03-29T03:58:54.686Z,15.20
2023-03-29T04:01:28.099Z,17.90
2023-03-29T04:04:08.786Z,16.50
2023-03-29T04:06:43.554Z,12.30
2023-03-29T04:09:35.230Z,15.10
2023-03-29T04:15:00.546Z,16.50
2023-03-29T04:17:33.699Z,12.90
2023-03-29T04:20:21.641Z,15.20
2023-03-29T04:22:57.971Z,16.40
2023-03-29T04:25:33.790Z,15.30
2023-03-29T04:28:41.705Z,15.10
2023-03-29T04:31:34.559Z,16.40
2023-03-29T04:34:20.715Z,15.90
2023-03-29T04:36:59.041Z,13.40
2023-03-29T04:39:34.485Z,14.80
2023-03-29T04:42:12.026Z,14.60
2023-03-29T04:44:44.997Z,15.60
2023-03-29T04:47:20.656Z,15.00
2023-03-29T04:50:03.707Z,17.60
2023-03-29T04:52:43.337Z,16.40
2023-03-29T04:55:16.238Z,15.60
2023-03-29T04:57:58.031Z,20.10
2023-03-29T05:00:41.104Z,20.10
2023-03-29T05:03:30.528Z,16.00
2023-03-29T05:06:13.101Z,23.40
2023-03-29T05:08:47.030Z,22.40
2023-03-29T05:11:26.997Z,18.40
2023-03-29T05:14:03.026Z,21.50
2023-03-29T05:16:38.508Z,24.90
2023-03-29T05:19:12.076Z,25.40
2023-03-29T05:21:50.279Z,23.30
2023-03-29T05:24:26.858Z,21.70
2023-03-29T05:27:03.964Z,24.70
2023-03-29T05:29:38.835Z,24.90
2023-03-29T05:32:22.943Z,26.70
2023-03-29T05:34:56.546Z,25.80
2023-03-29T05:37:29.046Z,25.80
2023-03-29T05:40:10.498Z,28.90
2023-03-29T05:43:19.073Z,28.30
2023-03-29T05:45:54.130Z,29.20
2023-03-29T05:48:27.507Z,32.10
2023-03-29T05:53:32.042Z,28.90
2023-03-29T05:58:38.543Z,33.40
2023-03-29T06:01:15.361Z,25.70
2023-03-29T06:04:08.358Z,30.10
2023-03-29T06:06:56.315Z,31.10
2023-03-29T06:09:29.169Z,29.50
2023-03-29T06:12:11.748Z,32.30
2023-03-29T06:15:05.134Z,30.10
2023-03-29T06:17:47.530Z,33.70
2023-03-29T06:20:23.236Z,33.20
2023-03-29T06:23:00.353Z,38.40
2023-03-29T06:25:34.589Z,42.70
2023-03-29T06:28:10.043Z,42.60
2023-03-29T06:30:46.532Z,43.90
2023-03-29T06:33:20.996Z,32.00
2023-03-29T06:35:59.263Z,30.20
2023-03-29T06:38:34.645Z,29.70
2023-03-29T06:41:25.547Z,28.10
2023-03-29T06:44:18.739Z,23.30
2023-03-29T06:47:01.941Z,22.00
2023-03-29T06:49:36.129Z,18.50
2023-03-29T06:52:19.904Z,20.80
2023-03-29T06:54:52.868Z,24.70
2023-03-29T06:57:26.081Z,25.30
2023-03-29T06:59:58.968Z,20.70
2023-03-29T07:02:52.768Z,24.40
2023-03-29T07:05:27.504Z,22.30
2023-03-29T07:08:11.441Z,21.70
2023-03-29T07:10:54.521Z,21.50
2023-03-29T07:13:46.717Z,20.10
2023-03-29T07:16:21.551Z,14.60
2023-03-29T07:18:59.105Z,16.70
2023-03-29T07:21:50.225Z,12.80
2023-03-29T07:24:23.729Z,15.60
2023-03-29T07:27:04.086Z,17.30
2023-03-29T07:29:39.986Z,15.60
2023-03-29T07:32:13.079Z,17.10
2023-03-29T07:34:49.596Z,19.10
2023-03-29T07:37:38.583Z,14.70
2023-03-29T07:40:18.076Z,18.60
2023-03-29T07:45:47.923Z,13.30
2023-03-29T07:48:20.804Z,11.30
2023-03-29T07:50:59.121Z,9.40
2023-03-29T07:53:37.492Z,9.50
2023-03-29T07:56:12.018Z,9.80
2023-03-29T07:58:52.675Z,9.60
2023-03-29T08:01:26.049Z,10.50
2023-03-29T08:04:15.523Z,8.40
2023-03-29T08:07:06.769Z,7.30
2023-03-29T08:10:00.631Z,6.80
2023-03-29T08:12:54.477Z,8.70
2023-03-29T08:15:34.020Z,8.80
2023-03-29T08:18:09.815Z,6.90
2023-03-29T08:20:42.915Z,7.20
2023-03-29T08:23:15.635Z,8.50
2023-03-29T08:26:09.057Z,6.70
2023-03-29T08:28:42.966Z,9.10
2023-03-29T08:31:16.657Z,10.50
2023-03-29T08:33:50.858Z,7.20
2023-03-29T08:36:43.189Z,6.80
2023-03-29T08:39:23.958Z,8.40
2023-03-29T08:42:27.037Z,8.20
2023-03-29T08:45:10.249Z,5.90
2023-03-29T08:47:52.602Z,8.30
2023-03-29T08:50:38.413Z,6.00
2023-03-29T08:53:14.833Z,6.90
2023-03-29T08:56:10.509Z,9.50
2023-03-29T08:59:04.201Z,7.10
2023-03-29T09:01:39.560Z,10.70
2023-03-29T09:04:16.086Z,7.90
2023-03-29T09:07:10.314Z,7.10
2023-03-29T09:09:48.383Z,9.50
2023-03-29T09:15:24.041Z,7.50
2023-03-29T09:18:29.990Z,7.20
2023-03-29T09:21:13.063Z,7.50
2023-03-29T09:24:09.328Z,7.00
2023-03-29T09:26:58.783Z,6.50
2023-03-29T09:29:59.793Z,6.40
2023-03-29T09:32:54.096Z,5.10
2023-03-29T09:35:37.539Z,5.70
2023-03-29T09:38:14.414Z,6.20
2023-03-29T09:40:53.742Z,4.10
2023-03-29T09:43:35.087Z,4.90
2023-03-29T09:46:16.450Z,6.90
2023-03-29T09:48:52.001Z,5.70
2023-03-29T09:51:28.825Z,5.50
2023-03-29T09:54:02.465Z,6.30
2023-03-29T09:57:07.466Z,5.70
2023-03-29T09:59:41.403Z,7.10
2023-03-29T10:02:15.914Z,6.10
2023-03-29T10:04:55.596Z,5.90
2023-03-29T10:07:42.133Z,7.60
2023-03-29T10:10:24.344Z,8.10
2023-03-29T10:13:02.366Z,7.90
2023-03-29T10:15:35.333Z,6.40
2023-03-29T10:18:14.285Z,5.50
2023-03-29T10:20:47.874Z,5.90
2023-03-29T10:25:53.703Z,7.60
2023-03-29T10:28:29.917Z,6.60
2023-03-29T10:31:08.508Z,7.40
2023-03-29T10:33:42.224Z,7.00
2023-03-29T10:38:49.446Z,7.80
2023-03-29T10:43:55.877Z,7.30
2023-03-29T10:46:32.829Z,4.90
2023-03-29T10:49:10.827Z,6.60
2023-03-29T10:51:49.731Z,7.00
2023-03-29T10:54:26.124Z,6.20
2023-03-29T10:57:05.372Z,6.40
2023-03-29T10:59:47.185Z,9.20
2023-03-29T11:02:46.286Z,7.30
2023-03-29T11:05:27.159Z,5.60
2023-03-29T11:08:29.763Z,7.40
2023-03-29T11:11:16.846Z,8.50
2023-03-29T11:14:00.108Z,6.90
2023-03-29T11:16:41.683Z,6.60
2023-03-29T11:19:44.202Z,8.80
2023-03-29T11:22:26.204Z,5.80
2023-03-29T11:25:11.925Z,7.20
2023-03-29T11:27:52.150Z,6.20
2023-03-29T11:30:32.812Z,6.90
2023-03-29T11:33:18.827Z,8.90
2023-03-29T11:36:02.423Z,6.30
2023-03-29T11:38:38.693Z,6.50
2023-03-29T11:41:18.053Z,8.00
2023-03-29T11:43:55.465Z,7.40
2023-03-29T11:46:32.954Z,8.30
2023-03-29T11:49:12.485Z,8.00
2023-03-29T11:51:51.413Z,8.30
2023-03-29T11:54:30.223Z,9.50
2023-03-29T11:57:07.948Z,7.20
2023-03-29T11:59:46.212Z,7.50
2023-03-29T12:02:29.492Z,8.50
2023-03-29T12:05:12.623Z,9.70
2023-03-29T12:07:50.412Z,7.40
2023-03-29T12:10:25.527Z,8.10
2023-03-29T12:13:03.334Z,7.00
2023-03-29T12:15:40.064Z,5.80
2023-03-29T12:18:22.495Z,4.50
2023-03-29T12:20:59.138Z,5.30
2023-03-29T12:23:34.086Z,3.70
2023-03-29T12:26:18.932Z,5.60
2023-03-29T12:29:24.342Z,6.50
2023-03-29T12:32:06.201Z,4.00
2023-03-29T12:35:00.939Z,3.90
2023-03-29T12:38:04.220Z,4.60
2023-03-29T12:41:02.497Z,3.40
2023-03-29T12:43:54.671Z,6.00
2023-03-29T12:46:38.120Z,4.50
2023-03-29T12:49:18.635Z,4.20
2023-03-29T12:51:53.507Z,4.20
2023-03-29T12:57:04.300Z,4.70
2023-03-29T12:59:45.246Z,5.40
2023-03-29T13:02:39.199Z,3.60
2023-03-29T13:07:56.788Z,3.60
2023-03-29T13:10:43.184Z,3.10
2023-03-29T13:13:21.026Z,4.40
2023-03-29T13:15:55.684Z,4.80
2023-03-29T13:18:43.935Z,5.60
2023-03-29T13:21:25.978Z,3.30
2023-03-29T13:24:30.086Z,5.10
2023-03-29T13:27:13.856Z,4.20
2023-03-29T13:30:09.720Z,4.00
2023-03-29T13:32:50.988Z,3.60
2023-03-29T13:35:41.889Z,4.00
2023-03-29T13:38:22.936Z,4.60
2023-03-29T13:41:12.010Z,4.10
2023-03-29T13:43:57.140Z,7.10
2023-03-29T13:46:41.408Z,4.40
2023-03-29T13:49:21.416Z,5.10
2023-03-29T13:52:09.515Z,5.40
2023-03-29T13:54:52.283Z,4.10
2023-03-29T13:57:33.423Z,4.10
2023-03-29T14:00:17.521Z,4.80
2023-03-29T14:02:53.789Z,3.40
2023-03-29T14:05:32.757Z,3.80
2023-03-29T14:08:12.038Z,5.10
2023-03-29T14:10:46.492Z,4.80
2023-03-29T14:13:23.014Z,4.50
2023-03-29T14:15:59.014Z,4.80
2023-03-29T14:18:34.753Z,3.90
2023-03-29T14:21:08.583Z,5.60
2023-03-29T14:23:45.477Z,5.60
2023-03-29T14:26:21.686Z,5.00
2023-03-29T14:29:01.709Z,5.20
2023-03-29T14:31:36.685Z,3.80
2023-03-29T14:34:14.035Z,5.00
2023-03-29T14:36:49.302Z,3.20
2023-03-29T14:39:24.705Z,3.60
2023-03-29T14:41:58.602Z,4.80
2023-03-29T14:44:33.583Z,3.50
2023-03-29T14:47:07.476Z,4.50
2023-03-29T14:49:40.674Z,3.70
2023-03-29T14:52:15.677Z,6.30
2023-03-29T14:54:52.521Z,7.40
2023-03-29T14:57:29.207Z,4.90
2023-03-29T15:00:16.838Z,3.20
2023-03-29T15:02:55.734Z,5.50
2023-03-29T15:05:36.276Z,3.60
2023-03-29T15:08:15.814Z,3.50
2023-03-29T15:10:48.976Z,2.90
2023-03-29T15:13:25.731Z,2.70
2023-03-29T15:16:03.841Z,4.80
2023-03-29T15:18:40.621Z,4.50
2023-03-29T15:21:17.666Z,3.10
2023-03-29T15:23:56.654Z,5.50
2023-03-29T15:26:33.346Z,4.40
2023-03-29T15:29:15.024Z,5.30
2023-03-29T15:31:59.431Z,4.90
2023-03-29T15:34:33.808Z,4.90
2023-03-29T15:37:08.440Z,4.70
2023-03-29T15:39:45.229Z,4.20
2023-03-29T15:42:17.908Z,4.00
2023-03-29T15:44:50.900Z,4.70
2023-03-29T15:47:24.608Z,5.90
2023-03-29T15:49:58.736Z,4.30
2023-03-29T15:52:32.185Z,8.80
2023-03-29T15:55:05.321Z,5.80
2023-03-29T15:57:42.914Z,5.80
2023-03-29T16:00:26.888Z,10.30
2023-03-29T16:03:07.444Z,5.90
2023-03-29T16:05:51.264Z,8.30
2023-03-29T16:08:37.058Z,6.80
2023-03-29T16:11:17.874Z,8.90
2023-03-29T16:14:00.903Z,7.30
2023-03-29T16:16:41.976Z,7.20
2023-03-29T16:19:20.721Z,6.90
2023-03-29T16:21:58.128Z,9.40
2023-03-29T16:24:34.122Z,6.90
2023-03-29T16:27:07.369Z,10.80
2023-03-29T16:29:40.114Z,11.00
2023-03-29T16:32:13.478Z,9.10
2023-03-29T16:34:46.856Z,8.40
2023-03-29T16:37:19.623Z,9.70
2023-03-29T16:39:52.483Z,10.40
2023-03-29T16:42:28.360Z,8.90
2023-03-29T16:45:06.355Z,8.10
2023-03-29T16:47:47.370Z,10.20
2023-03-29T16:50:25.045Z,12.60
2023-03-29T16:53:09.201Z,8.60
2023-03-29T16:55:45.217Z,10.10
2023-03-29T16:58:18.294Z,8.70
2023-03-29T17:00:52.406Z,9.80
2023-03-29T17:03:25.130Z,9.80
2023-03-29T17:05:58.840Z,10.80
2023-03-29T17:08:31.829Z,10.70
2023-03-29T17:11:05.402Z,9.80
2023-03-29T17:13:38.312Z,10.80
2023-03-29T17:16:11.894Z,11.00
2023-03-29T17:21:16.664Z,8.60
2023-03-29T17:23:49.410Z,7.50
2023-03-29T17:26:22.350Z,7.60
2023-03-29T17:28:55.093Z,7.40
2023-03-29T17:31:28.302Z,8.10
2023-03-29T17:34:01.251Z,9.30
2023-03-29T17:36:34.207Z,7.10
2023-03-29T17:39:10.713Z,8.50
2023-03-29T17:41:44.150Z,8.00
2023-03-29T17:44:17.014Z,11.20
2023-03-29T17:46:49.805Z,10.40
2023-03-29T17:49:23.040Z,9.70
2023-03-29T17:51:57.460Z,9.50
2023-03-29T17:54:30.442Z,8.10
2023-03-29T17:57:03.158Z,10.40
2023-03-29T17:59:37.223Z,8.30
2023-03-29T18:02:09.986Z,8.50
2023-03-29T18:04:43.202Z,8.60
2023-03-29T18:07:16.475Z,8.90
2023-03-29T18:09:49.242Z,12.40
2023-03-29T18:12:22.382Z,11.50
2023-03-29T18:14:57.237Z,9.60
2023-03-29T18:17:32.040Z,12.40
2023-03-29T18:20:10.142Z,11.70
2023-03-29T18:22:46.164Z,12.20
2023-03-29T18:25:20.483Z,10.50
2023-03-29T18:27:53.044Z,10.50
2023-03-29T18:30:26.742Z,11.10
2023-03-29T18:35:30.709Z,15.70
2023-03-29T18:38:03.876Z,12.90
2023-03-29T18:40:37.040Z,13.10
2023-03-29T18:43:09.618Z,12.50
2023-03-29T18:45:42.955Z,12.00
2023-03-29T18:48:16.006Z,17.60
2023-03-29T18:50:48.646Z,15.60
2023-03-29T18:53:22.067Z,16.30
2023-03-29T18:55:55.036Z,15.20
2023-03-29T18:58:28.396Z,19.00
2023-03-29T19:01:05.965Z,17.50
2023-03-29T19:03:38.966Z,15.70
2023-03-29T19:06:12.338Z,12.70
2023-03-29T19:08:45.114Z,18.30
2023-03-29T19:11:17.801Z,23.20
2023-03-29T19:13:52.648Z,26.50
2023-03-29T19:16:26.301Z,20.80
2023-03-29T19:19:01.953Z,18.80
2023-03-29T19:21:34.863Z,21.60
2023-03-29T19:24:08.499Z,27.10
2023-03-29T19:26:41.516Z,23.30
2023-03-29T19:29:15.449Z,25.30
2023-03-29T19:31:48.249Z,21.60
2023-03-29T19:34:23.363Z,22.30
2023-03-29T19:36:59.023Z,20.30
2023-03-29T19:39:31.846Z,23.40
2023-03-29T19:42:04.526Z,24.30
2023-03-29T19:44:38.721Z,20.20
2023-03-29T19:47:11.623Z,22.20
2023-03-29T19:49:46.548Z,26.10
2023-03-29T19:52:21.245Z,31.00
2023-03-29T19:54:54.041Z,29.20
2023-03-29T19:57:27.271Z,28.50
2023-03-29T19:59:59.980Z,24.90
2023-03-29T20:02:32.805Z,29.70
2023-03-29T20:05:06.412Z,25.90
2023-03-29T20:10:11.509Z,26.80
2023-03-29T20:12:44.101Z,29.50
2023-03-29T20:15:17.348Z,31.80
2023-03-29T20:17:52.400Z,29.30
2023-03-29T20:20:25.722Z,30.80
2023-03-29T20:23:05.211Z,24.50
2023-03-29T20:25:38.414Z,24.30
2023-03-29T20:28:15.233Z,26.80
2023-03-29T20:30:51.662Z,26.70
2023-03-29T20:33:25.046Z,25.70
2023-03-29T20:35:58.039Z,25.10
2023-03-29T20:38:30.882Z,24.30
2023-03-29T20:41:04.565Z,27.60
2023-03-29T20:43:39.069Z,25.70
2023-03-29T20:46:18.681Z,25.90
2023-03-29T20:48:54.925Z,22.50
2023-03-29T20:51:30.783Z,24.30
2023-03-29T20:54:05.404Z,27.90
2023-03-29T20:56:40.279Z,21.40
2023-03-29T20:59:17.245Z,29.50
2023-03-29T21:01:50.636Z,26.90
2023-03-29T21:04:23.935Z,24.70
2023-03-29T21:06:57.475Z,22.30
2023-03-29T21:12:01.780Z,25.50
2023-03-29T21:14:34.944Z,27.20
2023-03-29T21:17:09.612Z,25.00
2023-03-29T21:19:43.319Z,23.50
2023-03-29T21:24:47.994Z,25.80
2023-03-29T21:27:20.845Z,26.60
2023-03-29T21:29:54.102Z,25.20
2023-03-29T21:32:26.953Z,25.00
2023-03-29T21:34:59.981Z,21.70
2023-03-29T21:37:32.788Z,30.20
2023-03-29T21:40:07.533Z,30.30
2023-03-29T21:42:40.194Z,29.80
2023-03-29T21:45:14.485Z,27.70
2023-03-29T21:47:47.030Z,25.60
2023-03-29T21:50:20.067Z,21.90
2023-03-29T21:52:52.762Z,30.50
2023-03-29T21:55:25.483Z,29.40
2023-03-29T21:57:58.212Z,29.00
2023-03-29T22:00:31.673Z,29.00
2023-03-29T22:03:04.244Z,31.00
2023-03-29T22:05:37.322Z,29.70
2023-03-29T22:08:11.406Z,26.00
2023-03-29T22:10:44.186Z,25.00
2023-03-29T22:13:17.086Z,25.60
2023-03-29T22:15:50.354Z,24.50
2023-03-29T22:18:22.940Z,26.00
2023-03-29T22:20:56.786Z,21.80
2023-03-29T22:23:29.695Z,26.20
2023-03-29T22:26:05.806Z,20.70
2023-03-29T22:28:38.743Z,20.80
2023-03-29T22:31:12.928Z,22.10
2023-03-29T22:33:45.536Z,21.40
2023-03-29T22:36:20.418Z,25.70
2023-03-29T22:38:54.137Z,21.10
2023-03-29T22:44:01.296Z,21.80
2023-03-29T22:46:34.102Z,23.60
2023-03-29T22:49:07.484Z,23.00
2023-03-29T22:51:40.354Z,14.90
2023-03-29T22:54:12.976Z,23.30
2023-03-29T22:56:45.737Z,21.70
2023-03-29T22:59:18.542Z,19.00
2023-03-29T23:01:52.849Z,21.50
2023-03-29T23:04:25.617Z,25.50
2023-03-29T23:06:59.453Z,19.70
2023-03-29T23:09:33.528Z,18.80
2023-03-29T23:12:06.298Z,19.60
2023-03-29T23:14:43.123Z,18.10
2023-03-29T23:17:19.777Z,19.60
2023-03-29T23:19:53.307Z,19.30
2023-03-29T23:22:26.862Z,18.70
2023-03-29T23:24:59.773Z,21.40
2023-03-29T23:27:33.671Z,16.60
2023-03-29T23:30:07.956Z,21.50
2023-03-29T23:32:40.741Z,17.00
2023-03-29T23:35:14.142Z,18.10
2023-03-29T23:37:47.554Z,17.90
2023-03-29T23:40:20.420Z,21.70
2023-03-29T23:42:53.541Z,17.60
2023-03-29T23:45:28.117Z,21.00
2023-03-29T23:48:01.574Z,20.50
2023-03-29T23:50:34.403Z,22.70
2023-03-29T23:53:07.580Z,23.60
2023-03-29T23:55:40.272Z,27.20
2023-03-29T23:58:13.395Z,24.50
